Change the Weather History Date:

Thursday, December 5, 2013

  Actual Average (KOKC) Record (KOKC)
Temperature  
Mean Temperature 22 °F 43 °F  
Max Temperature 28 °F 53 °F 77 °F (1975)
Min Temperature 17 °F 33 °F 9 °F (1950)
Degree Days  
Heating Degree Days 42 22  
Month to date heating degree days 108  
Since 1 July heating degree days 707  
Moisture  
Dew Point 11 °F    
Average Humidity 66    
Maximum Humidity 93    
Minimum Humidity 46    
Precipitation  
Precipitation 2.93 in 0.07 in 1.00 in (1935)
Month to date precipitation 0.32  
Year to date precipitation 34.96  
Snow  
Snow 0.00 in 0.00 in 3.30 in (1992)
Month to date snowfall 0.2  
Since 1 July snowfall 0.6  
Snow Depth -    
Sea Level Pressure  
Sea Level Pressure 30.22 in    
Wind  
Wind Speed 19 mph (North)    
Max Wind Speed 25 mph    
Max Gust Speed 33 mph    
Visibility 8 miles    
Events Rain , Snow    
T = Trace of Precipitation, MM = Missing Value Source: NWS Daily Summary

Daily Weather History Graph

Daily Weather History Graph

Search for Another Location

Airport or City:

Trip Planner

Search our weather history database for the weather conditions in past years. The results will help you decide how hot, cold, wet, or windy it might be!

Date:

Astronomy

Dec. 05, 2013 Rise Set
Actual Time 7:25 AM CST 5:18 PM CST
Civil Twilight 6:57 AM CST 5:46 PM CST
Nautical Twilight 6:26 AM CST 6:17 PM CST
Astronomical Twilight 5:55 AM CST 6:48 PM CST
Moon 9:49 AM CST (12/5) 8:37 PM CST (12/5)
Length of Visible Light 10h 48m
Length of Day
9h 52m
Waxing Crescent, 11% of the Moon is Illuminated
Dec 5
Waxing Crescent
Dec 9
First Quarter
Dec 17
Full
Dec 25
Last Quarter
Jan 1
New

Hourly Weather History & Observations

Time (CST) Temp. Windchill Dew Point Humidity Pressure Visibility Wind Dir Wind Speed Gust Speed Precip Events Conditions
12:15 AM 28.4 °F 15.4 °F 15.8 °F 59% 30.08 in 10.0 mi North 19.6 mph 27.6 mph N/A   Unknown
12:35 AM 28.4 °F 17.0 °F 15.8 °F 59% 30.09 in 10.0 mi North 15.0 mph 21.9 mph N/A   Unknown
12:55 AM 28.4 °F 14.4 °F 15.8 °F 59% 30.08 in 10.0 mi North 23.0 mph 28.8 mph N/A   Unknown
1:15 AM 28.4 °F 15.4 °F 14.0 °F 55% 30.09 in 10.0 mi North 19.6 mph 29.9 mph N/A   Unknown
1:35 AM 28.4 °F 14.7 °F 12.2 °F 51% 30.10 in 10.0 mi North 21.9 mph 29.9 mph N/A   Unknown
1:55 AM 26.6 °F 12.0 °F 10.4 °F 51% 30.11 in 10.0 mi North 23.0 mph 28.8 mph N/A   Unknown
2:15 AM 26.6 °F 12.0 °F 8.6 °F 47% 30.11 in 10.0 mi North 23.0 mph 29.9 mph N/A   Unknown
2:35 AM 26.6 °F 11.4 °F 8.6 °F 47% 30.13 in 10.0 mi North 25.3 mph - N/A   Unknown
2:55 AM 24.8 °F 9.3 °F 6.8 °F 46% 30.14 in 10.0 mi North 24.2 mph 33.4 mph N/A   Unknown
3:15 AM 24.8 °F 9.6 °F 6.8 °F 46% 30.14 in 10.0 mi North 23.0 mph 32.2 mph N/A   Unknown
3:35 AM 24.8 °F 10.0 °F 8.6 °F 50% 30.15 in 10.0 mi North 21.9 mph 31.1 mph N/A   Unknown
3:55 AM 24.8 °F 11.1 °F 8.6 °F 50% 30.16 in 10.0 mi North 18.4 mph 24.2 mph N/A   Unknown
4:15 AM 23.0 °F 9.2 °F 10.4 °F 59% 30.16 in 10.0 mi North 17.3 mph 26.5 mph N/A   Unknown
4:35 AM 23.0 °F 8.7 °F 8.6 °F 54% 30.17 in 10.0 mi North 18.4 mph 24.2 mph N/A   Unknown
4:55 AM 23.0 °F 9.2 °F 8.6 °F 54% 30.17 in 10.0 mi NNE 17.3 mph 20.7 mph N/A   Unknown
5:15 AM 23.0 °F 7.6 °F 8.6 °F 54% 30.18 in 10.0 mi North 21.9 mph 27.6 mph N/A   Unknown
5:35 AM 23.0 °F 6.9 °F 6.8 °F 50% 30.17 in 10.0 mi North 24.2 mph 29.9 mph N/A   Unknown
5:55 AM 23.0 °F 8.3 °F 8.6 °F 54% 30.18 in 10.0 mi North 19.6 mph 28.8 mph N/A   Unknown
6:15 AM 23.0 °F 8.0 °F 8.6 °F 54% 30.19 in 10.0 mi NNE 20.7 mph 27.6 mph N/A   Unknown
6:35 AM 23.0 °F 8.0 °F 6.8 °F 50% 30.19 in 10.0 mi NNE 20.7 mph 26.5 mph N/A   Unknown
6:55 AM 23.0 °F 7.6 °F 8.6 °F 54% 30.22 in 10.0 mi North 21.9 mph 28.8 mph N/A   Unknown
7:15 AM 21.2 °F 5.6 °F 8.6 °F 58% 30.20 in 10.0 mi NNE 20.7 mph 26.5 mph N/A   Unknown
7:35 AM 21.2 °F 5.6 °F 8.6 °F 58% 30.22 in 10.0 mi North 20.7 mph 26.5 mph N/A   Partly Cloudy
7:55 AM 21.2 °F 4.9 °F 8.6 °F 58% 30.24 in 10.0 mi North 23.0 mph 29.9 mph N/A   Clear
8:15 AM 21.2 °F 6.4 °F 6.8 °F 54% 30.24 in 10.0 mi NNE 18.4 mph 28.8 mph N/A   Clear
8:35 AM 21.2 °F 6.4 °F 6.8 °F 54% 30.22 in 10.0 mi North 18.4 mph - N/A   Clear
8:55 AM 21.2 °F 6.8 °F 6.8 °F 54% 30.25 in 10.0 mi NNE 17.3 mph 26.5 mph N/A   Clear
9:15 AM 21.2 °F 6.0 °F 6.8 °F 54% 30.27 in 10.0 mi NNE 19.6 mph 24.2 mph N/A   Clear
9:35 AM 21.2 °F 5.2 °F 6.8 °F 54% 30.26 in 10.0 mi NNE 21.9 mph 26.5 mph N/A   Clear
9:55 AM 21.2 °F 5.6 °F 6.8 °F 54% 30.27 in 10.0 mi North 20.7 mph 26.5 mph N/A   Clear
10:15 AM 21.2 °F 6.4 °F 6.8 °F 54% 30.28 in 10.0 mi North 18.4 mph 26.5 mph N/A   Clear
10:35 AM 21.2 °F 6.0 °F 6.8 °F 54% 30.27 in 10.0 mi North 19.6 mph 26.5 mph N/A   Clear
10:55 AM 23.0 °F 8.3 °F 5.0 °F 46% 30.28 in 10.0 mi NNE 19.6 mph 25.3 mph N/A   Clear
11:15 AM 23.0 °F 8.3 °F 5.0 °F 46% 30.27 in 10.0 mi NNE 19.6 mph 25.3 mph N/A   Clear
11:35 AM 23.0 °F 8.3 °F 5.0 °F 46% 30.25 in 10.0 mi NNE 19.6 mph 24.2 mph N/A   Clear
11:55 AM 23.0 °F 8.3 °F 5.0 °F 46% 30.24 in 10.0 mi North 19.6 mph 27.6 mph N/A   Clear
12:15 PM 23.0 °F 8.7 °F 5.0 °F 46% 30.26 in 10.0 mi North 18.4 mph 24.2 mph N/A   Scattered Clouds
12:35 PM 23.0 °F 9.2 °F 5.0 °F 46% 30.26 in 10.0 mi North 17.3 mph - N/A   Mostly Cloudy
12:55 PM 21.2 °F 7.8 °F 8.6 °F 58% 30.26 in 1.8 mi North 15.0 mph 20.7 mph 0.02 in Snow Light Snow
1:15 PM 23.0 °F 10.1 °F 8.6 °F 54% 30.24 in 6.0 mi NNE 15.0 mph 21.9 mph N/A Rain Light Freezing Rain
1:35 PM 21.2 °F 6.4 °F 8.6 °F 58% 30.22 in 2.5 mi NNE 18.4 mph 21.9 mph 0.01 in Snow Light Snow
1:55 PM 19.4 °F 4.5 °F 10.4 °F 68% 30.21 in 1.2 mi North 17.3 mph 24.2 mph 0.08 in Snow Light Snow
2:15 PM 19.4 °F 5.5 °F 14.0 °F 80% 30.21 in 1.0 mi North 15.0 mph 24.2 mph 0.07 in Snow Light Snow
2:35 PM 17.6 °F 2.7 °F 15.8 °F 93% 30.20 in 0.2 mi NNE 16.1 mph 19.6 mph 0.42 in Snow Heavy Snow
2:55 PM 17.6 °F 3.7 °F 15.8 °F 93% 30.20 in 0.2 mi North 13.8 mph 21.9 mph 1.16 in Snow Heavy Snow
3:15 PM 17.6 °F 2.2 °F 15.8 °F 93% 30.20 in 0.5 mi North 17.3 mph 21.9 mph 0.41 in Snow Snow
3:35 PM 17.6 °F 1.3 °F 15.8 °F 93% 30.21 in 0.8 mi North 19.6 mph - 0.77 in Snow Light Snow
3:55 PM 17.6 °F 3.2 °F 15.8 °F 93% 30.20 in 0.2 mi North 15.0 mph 21.9 mph 1.36 in Snow Heavy Snow
4:15 PM 17.6 °F 2.7 °F 14.0 °F 86% 30.20 in 3.0 mi North 16.1 mph 20.7 mph 0.02 in Snow Light Snow
4:35 PM 17.6 °F 2.7 °F 14.0 °F 86% 30.22 in 7.0 mi North 16.1 mph 21.9 mph 0.02 in Snow Light Snow
4:55 PM 17.6 °F 3.7 °F 14.0 °F 86% 30.23 in 5.0 mi NNE 13.8 mph 20.7 mph 0.02 in Snow Light Snow
5:15 PM 17.6 °F 4.3 °F 14.0 °F 86% 30.24 in 3.0 mi NNE 12.7 mph - 0.01 in Snow Light Snow
5:35 PM 17.6 °F 3.7 °F 14.0 °F 86% 30.26 in 4.0 mi North 13.8 mph - 0.02 in Snow Light Snow
5:55 PM 17.6 °F 3.7 °F 14.0 °F 86% 30.25 in 3.0 mi NNE 13.8 mph - 0.05 in Snow Light Snow
6:15 PM 17.6 °F 3.7 °F 14.0 °F 86% 30.26 in 1.5 mi North 13.8 mph 20.7 mph 0.13 in Snow Light Snow
6:35 PM 17.6 °F 3.7 °F 14.0 °F 86% 30.25 in 2.5 mi NNE 13.8 mph 18.4 mph 0.22 in Snow Light Snow
6:55 PM 17.6 °F 5.0 °F 14.0 °F 86% 30.25 in 5.0 mi NNE 11.5 mph - 0.24 in Snow Light Snow
7:15 PM 17.6 °F 3.7 °F 14.0 °F 86% 30.27 in 5.0 mi North 13.8 mph 18.4 mph N/A Snow Light Snow
7:35 PM 17.6 °F 3.2 °F 14.0 °F 86% 30.27 in 9.0 mi North 15.0 mph - N/A Snow Light Snow
7:55 PM 17.6 °F 2.7 °F 14.0 °F 86% 30.27 in 9.0 mi North 16.1 mph 20.7 mph N/A   Unknown
8:15 PM 17.6 °F 2.7 °F 14.0 °F 86% 30.27 in 10.0 mi North 16.1 mph - N/A   Unknown
8:35 PM 17.6 °F 3.2 °F 12.2 °F 79% 30.27 in 10.0 mi North 15.0 mph - N/A   Unknown
8:55 PM 17.6 °F 3.2 °F 12.2 °F 79% 30.27 in 10.0 mi North 15.0 mph - N/A   Unknown
9:15 PM 17.6 °F 1.7 °F 10.4 °F 73% 30.28 in 10.0 mi North 18.4 mph 23.0 mph N/A   Unknown
9:35 PM 17.6 °F 1.3 °F 12.2 °F 79% 30.27 in 10.0 mi North 19.6 mph 25.3 mph N/A   Unknown
9:55 PM 17.6 °F 1.3 °F 12.2 °F 79% 30.28 in 10.0 mi North 19.6 mph 23.0 mph N/A   Unknown
10:15 PM 17.6 °F 2.2 °F 12.2 °F 79% 30.28 in 10.0 mi North 17.3 mph 21.9 mph N/A   Unknown
10:35 PM 17.6 °F 0.9 °F 12.2 °F 79% 30.27 in 10.0 mi North 20.7 mph 25.3 mph N/A   Unknown
10:55 PM 17.6 °F 1.3 °F 14.0 °F 86% 30.28 in 10.0 mi North 19.6 mph 26.5 mph N/A   Unknown
11:15 PM 17.6 °F 2.2 °F 14.0 °F 86% 30.28 in 10.0 mi North 17.3 mph 21.9 mph N/A   Unknown
11:35 PM 17.6 °F 3.2 °F 14.0 °F 86% 30.28 in 10.0 mi North 15.0 mph 21.9 mph N/A   Unknown
11:55 PM 17.6 °F 1.3 °F 14.0 °F 86% 30.28 in 10.0 mi North 19.6 mph 24.2 mph N/A   Unknown